Time;durP1;ratioP1;P1;durP2;ratioP2;P2;SDS_P1;SDS_P2;PMS_P1;PMS_P2;Temp;Humidity;BMP_temperature;BMP_pressure;BME280_temperature;BME280_humidity;BME280_pressure;Samples;Min_cycle;Max_cycle;Signal;HPM_P1;HPM_P2
2022/05/09 00:01:04;;;;;;;5.00;2.30;;;;;;;11.05;54.75;102644.75;5057567;28;20033;-79
2022/05/09 00:03:30;;;;;;;5.45;2.40;;;;;;;11.02;55.14;102642.13;5056717;28;20021;-79
2022/05/09 00:05:55;;;;;;;6.07;2.33;;;;;;;11.01;54.55;102640.41;5056212;28;20028;-79
2022/05/09 00:08:20;;;;;;;5.05;2.47;;;;;;;10.97;54.97;102638.66;5055100;28;20028;-78
2022/05/09 00:10:46;;;;;;;5.88;2.28;;;;;;;10.92;55.72;102640.41;5057025;28;20044;-79
2022/05/09 00:13:12;;;;;;;6.65;2.35;;;;;;;10.89;55.24;102640.38;5055642;28;20029;-79
2022/05/09 00:15:37;;;;;;;11.18;2.30;;;;;;;10.83;55.75;102632.53;5055337;28;20025;-79
2022/05/09 00:18:03;;;;;;;5.40;2.40;;;;;;;10.81;56.22;102626.47;5056763;28;20043;-79
2022/05/09 00:20:28;;;;;;;10.55;2.65;;;;;;;10.77;56.59;102623.84;5062807;28;20036;-79
2022/05/09 00:22:54;;;;;;;7.65;2.45;;;;;;;10.75;56.39;102628.22;5061456;28;20049;-78
2022/05/09 00:25:22;;;;;;;7.78;2.03;;;;;;;10.74;56.40;102621.28;5058493;28;20537;-79
2022/05/09 00:27:47;;;;;;;6.97;2.20;;;;;;;10.72;56.41;102617.78;5060982;28;20120;-78
2022/05/09 00:30:15;;;;;;;5.47;2.38;;;;;;;10.71;55.75;102623.84;5055783;28;20108;-79
2022/05/09 00:32:41;;;;;;;8.45;2.47;;;;;;;10.68;55.72;102615.16;5058764;28;20521;-78
2022/05/09 00:35:09;;;;;;;9.05;2.83;;;;;;;10.62;56.04;102627.31;5060100;28;20032;-79
2022/05/09 00:37:34;;;;;;;9.43;2.65;;;;;;;10.56;57.35;102619.47;5069884;28;20479;-79
2022/05/09 00:39:59;;;;;;;8.32;2.97;;;;;;;10.51;56.39;102620.31;5062807;28;20069;-79
2022/05/09 00:42:25;;;;;;;10.85;3.13;;;;;;;10.44;56.62;102612.47;5056208;28;20079;-79
2022/05/09 00:44:50;;;;;;;11.07;3.47;;;;;;;10.39;56.80;102616.81;5055877;28;20021;-78
2022/05/09 00:47:15;;;;;;;8.07;2.88;;;;;;;10.31;57.50;102621.97;5055203;28;20078;-78
2022/05/09 00:49:50;;;;;;;8.43;2.60;;;;;;;10.26;58.11;102621.06;5053734;28;20829;-79
2022/05/09 00:52:29;;;;;;;10.68;2.75;;;;;;;10.25;58.03;102627.13;5052768;28;20029;-78
2022/05/09 00:55:06;;;;;;;8.27;2.63;;;;;;;10.21;57.70;102622.78;5056215;28;20028;-79
2022/05/09 00:57:45;;;;;;;6.88;2.63;;;;;;;10.18;57.78;102623.63;5057502;28;20021;-78
2022/05/09 01:00:14;;;;;;;7.65;2.42;;;;;;;10.17;58.22;102623.59;5059762;28;20025;-78
2022/05/09 01:02:44;;;;;;;8.48;2.60;;;;;;;10.12;57.86;102615.78;5062343;28;20036;-78
2022/05/09 01:05:12;;;;;;;9.02;2.70;;;;;;;10.08;57.47;102611.44;5057359;28;20069;-78
2022/05/09 01:07:38;;;;;;;9.15;2.67;;;;;;;10.01;57.55;102615.75;5052404;28;20305;-78
2022/05/09 01:10:03;;;;;;;7.13;2.78;;;;;;;9.98;58.16;102612.25;5053093;28;20059;-78
2022/05/09 01:12:32;;;;;;;7.30;2.45;;;;;;;9.93;58.04;102608.75;5060223;28;20028;-78
2022/05/09 01:15:02;;;;;;;4.90;2.30;;;;;;;9.87;59.06;102604.41;5055054;28;20090;-78
2022/05/09 01:17:28;;;;;;;8.32;2.72;;;;;;;9.84;59.26;102600.06;5058298;28;20036;-78
2022/05/09 01:19:55;;;;;;;8.70;2.55;;;;;;;9.83;59.68;102595.72;5068294;28;20028;-78
2022/05/09 01:22:30;;;;;;;14.60;2.90;;;;;;;9.82;59.38;102606.97;5067882;28;20044;-78
2022/05/09 01:25:02;;;;;;;8.23;2.80;;;;;;;9.80;60.35;102600.91;5067029;28;20019;-78
2022/05/09 01:27:29;;;;;;;7.57;2.50;;;;;;;9.79;59.06;102596.56;5065564;28;20036;-79
2022/05/09 01:30:08;;;;;;;8.60;2.60;;;;;;;9.80;58.35;102597.44;5063465;28;20028;-78
2022/05/09 01:32:48;;;;;;;6.25;2.65;;;;;;;9.76;57.87;102596.53;5067697;28;20025;-78
2022/05/09 01:35:25;;;;;;;5.32;2.50;;;;;;;9.72;58.32;102595.66;5064859;28;21063;-78
2022/05/09 01:37:55;;;;;;;8.30;2.92;;;;;;;9.68;59.33;102593.03;5068834;28;20103;-78
2022/05/09 01:40:21;;;;;;;5.90;2.40;;;;;;;9.64;59.97;102596.47;5067277;28;20032;-78
2022/05/09 01:42:46;;;;;;;8.55;2.60;;;;;;;9.59;60.06;102592.94;5066634;28;20177;-78
2022/05/09 01:45:12;;;;;;;6.80;2.85;;;;;;;9.54;60.63;102586.03;5060114;28;20483;-78
2022/05/09 01:50:23;;;;;;;6.65;2.65;;;;;;;9.56;60.32;102588.63;5061293;28;20368;-78
2022/05/09 01:52:49;;;;;;;8.18;2.70;;;;;;;9.55;60.17;102598.16;5058782;28;20036;-78
2022/05/09 01:55:14;;;;;;;8.77;2.80;;;;;;;9.53;60.22;102591.19;5059052;28;20063;-78
2022/05/09 01:57:39;;;;;;;10.10;2.78;;;;;;;9.48;60.22;102593.75;5060457;28;20460;-78
2022/05/09 02:00:06;;;;;;;7.60;2.38;;;;;;;9.44;60.12;102599.78;5063478;28;20024;-78
2022/05/09 02:02:32;;;;;;;8.57;2.78;;;;;;;9.40;60.71;102600.63;5063118;28;20029;-78
2022/05/09 02:04:57;;;;;;;6.13;2.70;;;;;;;9.37;59.86;102598.03;5058145;28;20021;-78
2022/05/09 02:07:23;;;;;;;7.50;2.95;;;;;;;9.34;60.30;102592.78;5055543;28;20567;-78
2022/05/09 02:09:49;;;;;;;5.68;2.80;;;;;;;9.33;60.74;102591.06;5056558;28;20041;-78
2022/05/09 02:12:16;;;;;;;5.72;2.60;;;;;;;9.32;60.26;102591.91;5061310;28;20074;-78
2022/05/09 02:14:43;;;;;;;6.03;2.80;;;;;;;9.30;60.63;102588.44;5070791;28;20032;-78
2022/05/09 02:17:09;;;;;;;7.63;2.88;;;;;;;9.25;61.25;102593.59;5065232;28;20024;-78
2022/05/09 02:19:35;;;;;;;6.45;3.10;;;;;;;9.22;60.60;102586.63;5068472;28;20187;-78
2022/05/09 02:22:01;;;;;;;6.93;2.47;;;;;;;9.19;61.05;102581.44;5067032;28;20121;-78
2022/05/09 02:24:27;;;;;;;7.63;3.10;;;;;;;9.17;60.63;102587.44;5065737;28;20149;-78
2022/05/09 02:26:53;;;;;;;7.80;2.67;;;;;;;9.15;60.66;102587.44;5071750;28;20036;-78
2022/05/09 02:29:18;;;;;;;4.70;2.70;;;;;;;9.11;61.33;102583.09;5069621;28;20035;-78
2022/05/09 02:31:44;;;;;;;8.10;3.00;;;;;;;9.09;60.73;102584.78;5070960;28;20111;-78
2022/05/09 02:34:09;;;;;;;5.72;2.72;;;;;;;9.07;61.04;102583.91;5070130;28;20070;-78
2022/05/09 02:36:34;;;;;;;7.53;2.80;;;;;;;9.05;61.38;102588.25;5061278;28;20124;-78
2022/05/09 02:39:00;;;;;;;6.07;2.50;;;;;;;9.04;61.22;102581.31;5059667;28;20515;-78
2022/05/09 02:41:25;;;;;;;7.03;2.80;;;;;;;9.01;61.00;102583.88;5057130;28;20028;-78
2022/05/09 02:43:50;;;;;;;9.98;3.10;;;;;;;8.95;61.35;102585.53;5060124;28;20372;-78
2022/05/09 02:46:16;;;;;;;6.80;2.60;;;;;;;8.91;61.59;102582.91;5057518;28;20415;-78
2022/05/09 02:48:41;;;;;;;6.28;2.75;;;;;;;8.85;61.83;102580.25;5059571;28;20047;-78
2022/05/09 02:51:08;;;;;;;7.22;2.70;;;;;;;8.79;62.22;102571.56;5052661;28;20024;-78
2022/05/09 02:53:35;;;;;;;6.97;2.72;;;;;;;8.74;62.52;102572.34;5061475;28;20048;-78
2022/05/09 02:56:01;;;;;;;6.63;2.60;;;;;;;8.75;62.85;102571.50;5056080;28;20078;-78
2022/05/09 02:58:26;;;;;;;6.07;2.65;;;;;;;8.75;61.98;102576.69;5059352;28;20032;-78
2022/05/09 03:00:52;;;;;;;9.82;2.78;;;;;;;8.74;61.57;102573.25;5053801;28;20040;-78
2022/05/09 03:06:01;;;;;;;10.65;3.10;;;;;;;8.61;62.29;102569.66;5062422;28;20386;-78
2022/05/09 03:08:26;;;;;;;10.23;3.30;;;;;;;8.54;63.88;102569.56;5059837;28;20100;-78
2022/05/09 03:10:51;;;;;;;10.13;3.22;;;;;;;8.48;63.78;102580.75;5055176;28;20045;-78
2022/05/09 03:13:17;;;;;;;9.88;2.95;;;;;;;8.43;64.01;102579.78;5057613;28;20032;-78
2022/05/09 03:15:45;;;;;;;8.73;3.22;;;;;;;8.44;63.93;102578.94;5061008;28;20025;-78
2022/05/09 03:18:12;;;;;;;8.52;3.20;;;;;;;8.40;64.17;102566.78;5053081;28;20024;-78
2022/05/09 03:20:38;;;;;;;8.43;2.92;;;;;;;8.35;64.55;102566.72;5061192;28;20025;-78
2022/05/09 03:23:05;;;;;;;11.90;3.45;;;;;;;8.34;64.88;102568.47;5055159;28;20380;-78
2022/05/09 03:25:31;;;;;;;7.28;2.83;;;;;;;8.37;63.71;102569.38;5060290;28;20133;-78
2022/05/09 03:27:57;;;;;;;7.65;3.00;;;;;;;8.39;63.28;102567.63;5055935;28;20518;-78
2022/05/09 03:30:23;;;;;;;7.43;3.00;;;;;;;8.39;63.10;102562.44;5053019;28;20111;-78
2022/05/09 03:32:48;;;;;;;8.18;2.95;;;;;;;8.37;63.64;102559.00;5057164;28;20508;-78
2022/05/09 03:35:14;;;;;;;9.30;3.30;;;;;;;8.34;62.79;102562.41;5062943;28;20041;-78
2022/05/09 03:37:40;;;;;;;9.30;3.35;;;;;;;8.29;64.04;102558.88;5058241;28;20017;-78
2022/05/09 03:40:06;;;;;;;8.27;2.92;;;;;;;8.28;63.92;102560.59;5058306;28;20207;-78
2022/05/09 03:42:32;;;;;;;8.23;3.17;;;;;;;8.29;63.47;102556.28;5059666;28;20036;-78
2022/05/09 03:44:57;;;;;;;7.20;2.90;;;;;;;8.29;62.77;102556.28;5060122;28;20039;-78
2022/05/09 03:47:23;;;;;;;8.60;2.88;;;;;;;8.28;63.05;102550.25;5057383;28;20089;-78
2022/05/09 03:49:48;;;;;;;8.20;3.20;;;;;;;8.27;63.37;102558.88;5057012;28;20035;-78
2022/05/09 03:52:14;;;;;;;9.05;3.60;;;;;;;8.29;63.25;102556.28;5059066;28;20086;-78
2022/05/09 03:54:39;;;;;;;8.60;3.17;;;;;;;8.30;63.49;102553.72;5056396;28;20150;-78
2022/05/09 03:57:05;;;;;;;8.43;3.10;;;;;;;8.31;63.81;102550.28;5052239;28;20032;-77
2022/05/09 03:59:32;;;;;;;9.18;2.95;;;;;;;8.33;63.61;102558.06;5062161;28;20663;-78
2022/05/09 04:01:57;;;;;;;11.25;3.25;;;;;;;8.34;63.49;102552.91;5056112;28;20047;-77
2022/05/09 04:04:22;;;;;;;8.25;3.65;;;;;;;8.37;63.76;102551.22;5058508;28;20024;-78
2022/05/09 04:06:51;;;;;;;5.90;2.80;;;;;;;8.39;63.54;102552.06;5053326;28;20522;-78
2022/05/09 04:09:16;;;;;;;9.40;3.13;;;;;;;8.39;63.50;102547.78;5055731;28;20111;-78
2022/05/09 04:11:42;;;;;;;6.93;3.03;;;;;;;8.40;63.32;102546.91;5061198;28;20123;-78
2022/05/09 04:14:07;;;;;;;9.43;3.22;;;;;;;8.41;63.47;102547.78;5059484;28;20033;-78
2022/05/09 04:16:50;;;;;;;9.90;3.40;;;;;;;8.43;63.45;102552.16;5053716;28;20052;-77
2022/05/09 04:19:17;;;;;;;8.25;3.50;;;;;;;8.43;63.24;102548.66;5061589;28;20115;-77
2022/05/09 04:21:42;;;;;;;9.80;3.47;;;;;;;8.42;63.46;102547.81;5060589;28;20093;-78
2022/05/09 04:24:08;;;;;;;6.25;2.88;;;;;;;8.42;63.30;102552.09;5062955;28;20028;-77
2022/05/09 04:26:33;;;;;;;6.18;3.00;;;;;;;8.37;63.60;102549.47;5060796;28;20098;-77
2022/05/09 04:29:00;;;;;;;10.75;3.67;;;;;;;8.34;63.64;102554.63;5053601;28;20430;-78
2022/05/09 04:31:27;;;;;;;5.90;2.97;;;;;;;8.34;64.20;102550.31;5052439;28;20041;-77
2022/05/09 04:33:52;;;;;;;8.77;3.38;;;;;;;8.33;64.05;102548.56;5056850;28;20399;-77
2022/05/09 04:36:18;;;;;;;8.68;3.50;;;;;;;8.36;63.86;102545.13;5058886;28;20036;-77
2022/05/09 04:38:43;;;;;;;9.52;3.28;;;;;;;8.38;64.11;102547.72;5055635;28;20041;-77
2022/05/09 04:41:10;;;;;;;6.05;3.13;;;;;;;8.37;64.48;102539.09;5057334;28;20496;-77
2022/05/09 04:43:37;;;;;;;6.47;3.20;;;;;;;8.38;64.70;102546.03;5060875;28;20031;-77
2022/05/09 04:46:04;;;;;;;7.53;2.83;;;;;;;8.41;64.73;102545.19;5053471;28;20460;-77
2022/05/09 04:48:30;;;;;;;8.32;3.00;;;;;;;8.46;64.71;102548.69;5057025;28;20041;-78
2022/05/09 04:50:56;;;;;;;6.20;2.83;;;;;;;8.51;64.65;102541.88;5060821;28;20033;-78
2022/05/09 04:53:21;;;;;;;10.85;3.38;;;;;;;8.56;64.51;102544.50;5052701;28;20052;-78
2022/05/09 04:55:47;;;;;;;7.72;3.05;;;;;;;8.60;63.95;102541.97;5058198;28;20105;-78
2022/05/09 04:58:18;;;;;;;8.38;3.33;;;;;;;8.63;64.23;102536.81;5062621;28;20035;-78
2022/05/09 05:00:44;;;;;;;8.32;3.20;;;;;;;8.69;64.00;102535.13;5061837;28;20039;-78
2022/05/09 05:03:09;;;;;;;8.43;3.03;;;;;;;8.72;63.60;102529.94;5062857;28;20013;-78
2022/05/09 05:05:35;;;;;;;9.05;3.30;;;;;;;8.77;64.66;102536.06;5060355;28;20103;-78
2022/05/09 05:08:01;;;;;;;7.85;3.53;;;;;;;8.84;64.03;102537.88;5056015;28;20426;-78
2022/05/09 05:10:28;;;;;;;9.15;3.47;;;;;;;8.87;63.48;102529.22;5054948;28;20134;-78
2022/05/09 05:12:54;;;;;;;9.73;3.50;;;;;;;8.92;63.48;102531.00;5063608;28;21059;-78
2022/05/09 05:15:19;;;;;;;9.38;3.53;;;;;;;9.01;63.72;102531.94;5064104;28;20432;-78
2022/05/09 05:17:44;;;;;;;8.48;3.47;;;;;;;9.07;63.63;102531.97;5061021;28;20037;-78
2022/05/09 05:20:13;;;;;;;8.48;3.75;;;;;;;9.14;63.32;102533.78;5065611;28;20050;-78
2022/05/09 05:22:41;;;;;;;7.68;3.58;;;;;;;9.21;63.52;102530.38;5064287;28;20028;-78
2022/05/09 05:25:08;;;;;;;8.48;3.72;;;;;;;9.30;63.53;102536.47;5064435;28;20371;-78
2022/05/09 05:27:34;;;;;;;8.02;3.75;;;;;;;9.35;63.80;102533.06;5057615;28;20538;-78
2022/05/09 05:29:59;;;;;;;10.10;3.72;;;;;;;9.41;64.01;102532.22;5061637;28;20082;-78
2022/05/09 05:32:27;;;;;;;9.68;3.97;;;;;;;9.47;64.06;102527.06;5058379;28;20494;-78
2022/05/09 05:34:53;;;;;;;8.55;3.70;;;;;;;9.54;64.01;102533.16;5056924;28;20072;-78
2022/05/09 05:37:19;;;;;;;9.35;3.88;;;;;;;9.60;63.67;102537.53;5061465;28;20066;-78
2022/05/09 05:39:46;;;;;;;10.02;3.95;;;;;;;9.65;63.99;102541.88;5064825;28;20477;-78
2022/05/09 05:42:14;;;;;;;9.15;4.20;;;;;;;9.73;63.09;102541.97;5066430;28;20024;-78
2022/05/09 05:44:40;;;;;;;8.10;3.25;;;;;;;9.81;62.61;102535.06;5065091;28;20057;-78
2022/05/09 05:47:11;;;;;;;11.13;3.97;;;;;;;9.91;63.16;102542.88;5069465;28;20521;-78
2022/05/09 05:49:38;;;;;;;10.13;4.00;;;;;;;9.97;62.66;102537.72;5067544;28;20516;-78
2022/05/09 05:52:04;;;;;;;10.82;3.88;;;;;;;10.06;62.31;102539.47;5063062;28;20110;-78
2022/05/09 05:54:31;;;;;;;11.07;3.75;;;;;;;10.14;62.65;102536.06;5062053;28;20078;-78
2022/05/09 05:56:57;;;;;;;8.85;3.42;;;;;;;10.24;61.93;102536.09;5059611;28;20038;-78
2022/05/09 05:59:22;;;;;;;9.63;3.75;;;;;;;10.33;61.84;102536.09;5065496;28;20125;-78
2022/05/09 06:01:49;;;;;;;13.50;4.00;;;;;;;10.40;62.16;102531.81;5061160;28;20053;-78
2022/05/09 06:04:14;;;;;;;9.88;4.25;;;;;;;10.48;60.78;102530.13;5065650;28;20021;-78
2022/05/09 06:06:39;;;;;;;7.47;3.50;;;;;;;10.56;59.97;102533.59;5072896;28;20026;-78
2022/05/09 06:09:05;;;;;;;11.23;3.80;;;;;;;10.63;60.97;102532.75;5065864;28;20395;-78
2022/05/09 06:11:31;;;;;;;9.55;4.25;;;;;;;10.70;61.68;102531.00;5068600;28;20124;-78
2022/05/09 06:13:56;;;;;;;8.40;3.90;;;;;;;10.77;59.51;102534.47;5069291;28;20119;-78
2022/05/09 06:16:21;;;;;;;8.85;4.20;;;;;;;10.83;59.76;102531.91;5072018;28;20105;-78
2022/05/09 06:18:51;;;;;;;6.38;3.70;;;;;;;10.91;60.31;102540.56;5070203;28;20464;-78
2022/05/09 06:21:17;;;;;;;7.53;3.97;;;;;;;10.98;60.18;102536.22;5066665;28;20026;-78
2022/05/09 06:23:43;;;;;;;11.50;3.88;;;;;;;11.06;60.55;102531.00;5070429;28;20496;-78
2022/05/09 06:26:08;;;;;;;9.95;3.92;;;;;;;11.13;60.07;102532.75;5073782;28;20032;-78
2022/05/09 06:28:33;;;;;;;9.50;4.20;;;;;;;11.20;60.25;102525.78;5065015;28;20094;-78
2022/05/09 06:30:59;;;;;;;10.80;3.70;;;;;;;11.28;60.30;102531.84;5065713;28;20031;-78
2022/05/09 06:33:25;;;;;;;11.43;4.28;;;;;;;11.35;58.78;102524.91;5062581;28;20077;-78
2022/05/09 06:35:52;;;;;;;12.55;4.03;;;;;;;11.42;58.57;102525.75;5068989;28;20155;-78
2022/05/09 06:38:19;;;;;;;10.80;4.03;;;;;;;11.48;57.85;102518.78;5073405;28;20471;-78
2022/05/09 06:40:45;;;;;;;11.48;4.03;;;;;;;11.56;57.91;102530.91;5073864;28;20479;-78
2022/05/09 06:43:10;;;;;;;13.75;4.45;;;;;;;11.62;57.52;102523.94;5069962;28;20012;-78
2022/05/09 06:45:36;;;;;;;13.23;4.95;;;;;;;11.69;57.93;102536.09;5073220;28;20382;-78
2022/05/09 06:48:02;;;;;;;10.00;3.80;;;;;;;11.76;58.39;102523.06;5073709;28;20081;-78
2022/05/09 06:50:31;;;;;;;12.98;4.50;;;;;;;11.84;58.37;102513.44;5072939;28;20129;-78
2022/05/09 06:52:57;;;;;;;8.85;3.58;;;;;;;11.92;59.39;102522.13;5072680;28;20028;-78
2022/05/09 06:55:22;;;;;;;8.10;4.07;;;;;;;11.98;57.82;102522.13;5071327;28;20456;-78
2022/05/09 06:57:49;;;;;;;11.50;4.28;;;;;;;12.07;57.73;102517.75;5071955;28;20021;-78
2022/05/09 07:00:18;;;;;;;11.00;4.80;;;;;;;12.14;57.84;102511.59;5070994;28;20028;-78
2022/05/09 07:02:43;;;;;;;12.95;5.20;;;;;;;12.23;57.57;102515.91;5070999;28;20043;-78
2022/05/09 07:05:10;;;;;;;8.95;4.03;;;;;;;12.30;56.32;102518.47;5069285;28;20021;-78
2022/05/09 07:07:36;;;;;;;9.35;4.40;;;;;;;12.39;56.97;102516.69;5068104;28;20051;-78
2022/05/09 07:10:01;;;;;;;10.15;3.80;;;;;;;12.48;59.83;102516.59;5071869;28;20086;-78
2022/05/09 07:12:27;;;;;;;8.35;4.18;;;;;;;12.56;56.05;102513.94;5072029;28;20438;-78
2022/05/09 07:14:52;;;;;;;9.80;4.60;;;;;;;12.61;56.42;102512.19;5070887;28;20021;-78
2022/05/09 07:17:18;;;;;;;8.73;4.30;;;;;;;12.69;56.27;102509.50;5070532;28;20017;-78
2022/05/09 07:19:44;;;;;;;12.23;4.35;;;;;;;12.75;55.60;102512.09;5070449;28;20036;-78
2022/05/09 07:22:09;;;;;;;9.25;4.13;;;;;;;12.81;56.94;102506.78;5072173;28;20070;-78
2022/05/09 07:24:35;;;;;;;11.93;4.25;;;;;;;12.87;56.47;102509.38;5070578;28;20021;-78
2022/05/09 07:27:00;;;;;;;10.27;4.13;;;;;;;12.94;56.45;102511.94;5068902;28;20403;-78
2022/05/09 07:29:25;;;;;;;10.10;4.40;;;;;;;13.01;56.73;102505.75;5072679;28;20025;-78
2022/05/09 07:31:50;;;;;;;15.05;6.40;;;;;;;13.06;55.48;102507.44;5072562;28;20024;-78
2022/05/09 07:34:16;;;;;;;10.60;5.90;;;;;;;13.14;58.06;102507.41;5071181;28;20025;-78
2022/05/09 07:36:42;;;;;;;10.80;6.50;;;;;;;13.20;55.33;102512.53;5069346;28;20028;-78
2022/05/09 07:39:07;;;;;;;9.23;4.50;;;;;;;13.29;55.16;102510.72;5071424;28;20024;-78
2022/05/09 07:41:33;;;;;;;16.27;4.80;;;;;;;13.38;55.61;102510.63;5070680;28;20487;-78
2022/05/09 07:43:58;;;;;;;8.95;4.05;;;;;;;13.44;53.96;102504.50;5070747;28;20035;-78
2022/05/09 07:46:23;;;;;;;9.02;4.03;;;;;;;13.53;54.39;102508.75;5072048;28;20033;-78
2022/05/09 07:48:49;;;;;;;9.18;4.05;;;;;;;13.61;53.71;102509.53;5070945;28;20025;-78
2022/05/09 07:51:15;;;;;;;8.65;4.30;;;;;;;13.68;53.28;102511.19;5072391;28;20079;-78
2022/05/09 07:53:41;;;;;;;11.75;3.97;;;;;;;13.76;54.24;102514.59;5063598;28;20024;-78
2022/05/09 07:56:06;;;;;;;8.75;3.83;;;;;;;13.87;54.57;102508.34;5069932;28;20043;-78
2022/05/09 07:58:33;;;;;;;9.32;3.88;;;;;;;13.95;54.07;102511.75;5066388;28;20082;-78
2022/05/09 08:00:59;;;;;;;9.57;4.20;;;;;;;14.02;53.14;102508.13;5071591;28;20062;-78
2022/05/09 08:03:26;;;;;;;10.77;4.20;;;;;;;14.07;52.66;102500.25;5070382;28;20055;-78
2022/05/09 08:05:56;;;;;;;9.77;4.07;;;;;;;14.16;53.34;102509.72;5069704;28;20032;-78
2022/05/09 08:08:21;;;;;;;9.68;4.38;;;;;;;14.22;52.36;102504.38;5068818;28;20492;-78
2022/05/09 08:10:47;;;;;;;11.32;4.30;;;;;;;14.27;52.02;102506.03;5070553;28;20044;-78
2022/05/09 08:13:14;;;;;;;9.05;4.30;;;;;;;14.36;51.71;102512.03;5071515;28;20029;-78
2022/05/09 08:15:40;;;;;;;15.50;6.50;;;;;;;14.42;53.98;102509.34;5072112;28;20103;-78
2022/05/09 08:18:05;;;;;;;11.43;4.60;;;;;;;14.45;52.80;102511.91;5068841;28;20115;-79
2022/05/09 08:20:34;;;;;;;8.43;4.18;;;;;;;14.49;51.44;102504.88;5065691;28;20162;-78
2022/05/09 08:23:06;;;;;;;11.82;4.80;;;;;;;14.51;51.41;102509.19;5070615;28;20047;-78
2022/05/09 08:25:34;;;;;;;9.85;4.50;;;;;;;14.57;51.54;102511.72;5070442;28;20035;-78
2022/05/09 08:28:01;;;;;;;12.77;4.60;;;;;;;14.64;50.51;102504.63;5068313;28;20029;-78
2022/05/09 08:30:32;;;;;;;9.32;3.95;;;;;;;14.75;51.30;102512.34;5064301;28;20034;-78
2022/05/09 08:32:58;;;;;;;9.20;3.80;;;;;;;14.87;50.49;102503.41;5067083;28;20028;-78
2022/05/09 08:35:23;;;;;;;8.27;3.45;;;;;;;14.96;51.38;102512.84;5080856;28;20286;-78
2022/05/09 08:37:48;;;;;;;8.90;3.92;;;;;;;14.99;49.59;102513.69;5079518;28;20030;-78
2022/05/09 08:40:15;;;;;;;10.23;3.67;;;;;;;15.03;51.54;102509.25;5068109;28;20051;-78
2022/05/09 08:42:50;;;;;;;8.20;3.55;;;;;;;15.07;50.67;102505.69;5064926;28;20090;-78
2022/05/09 08:45:28;;;;;;;9.52;3.78;;;;;;;15.13;50.47;102504.72;5068316;28;20112;-78
2022/05/09 08:48:13;;;;;;;8.77;3.33;;;;;;;15.21;50.70;102502.78;5063816;28;21139;-78
2022/05/09 08:50:51;;;;;;;6.65;3.40;;;;;;;15.29;50.54;102498.28;5056292;28;20037;-78
2022/05/09 08:53:23;;;;;;;8.88;3.20;;;;;;;15.40;50.47;102502.44;5064114;28;20472;-78
2022/05/09 08:55:49;;;;;;;10.32;3.63;;;;;;;15.49;51.41;102497.03;5059361;28;20025;-78
2022/05/09 08:58:19;;;;;;;9.15;3.30;;;;;;;15.60;50.19;102500.31;5068848;28;20028;-78
2022/05/09 09:00:49;;;;;;;7.23;3.40;;;;;;;15.65;49.28;102501.97;5060942;28;20039;-79
2022/05/09 09:03:35;;;;;;;11.10;3.80;;;;;;;15.71;48.83;102493.97;5062903;28;20021;-79
2022/05/09 09:06:13;;;;;;;7.57;3.72;;;;;;;15.78;48.67;102492.94;5071499;28;20026;-77
2022/05/09 09:09:04;;;;;;;10.13;4.25;;;;;;;15.85;49.03;102489.34;5067300;28;20032;-79
2022/05/09 09:11:49;;;;;;;8.85;4.10;;;;;;;15.96;49.34;102496.09;5062875;28;20685;-78
2022/05/09 09:14:41;;;;;;;10.02;4.25;;;;;;;16.01;46.98;102483.75;5063217;28;20537;-78
2022/05/09 09:17:45;;;;;;;10.30;4.20;;;;;;;16.05;47.68;102482.78;5059235;28;20096;-78
2022/05/09 09:20:18;;;;;;;7.00;3.88;;;;;;;16.07;47.34;102475.72;5057872;28;20379;-78
2022/05/09 09:22:52;;;;;;;10.85;3.90;;;;;;;16.12;48.04;102475.63;5068605;28;20479;-77
2022/05/09 09:25:32;;;;;;;7.90;4.50;;;;;;;16.21;47.70;102471.03;5058405;28;20368;-78
2022/05/09 09:28:06;;;;;;;8.57;3.30;;;;;;;16.27;47.12;102477.03;5061124;28;20123;-78
2022/05/09 09:30:33;;;;;;;7.88;3.92;;;;;;;16.30;47.32;102475.22;5066695;28;20028;-78
2022/05/09 09:33:06;;;;;;;9.70;4.05;;;;;;;16.37;46.61;102475.91;5054970;28;20495;-78
2022/05/09 09:36:05;;;;;;;10.30;4.32;;;;;;;16.41;46.40;102469.66;5065480;28;20055;-78
2022/05/09 09:38:37;;;;;;;11.57;3.90;;;;;;;16.46;45.91;102465.19;5061276;28;20054;-79
2022/05/09 09:41:25;;;;;;;7.13;3.83;;;;;;;16.58;47.01;102464.00;5064026;28;20108;-77
2022/05/09 09:44:05;;;;;;;8.57;3.95;;;;;;;16.67;45.16;102468.19;5071403;28;20100;-77
2022/05/09 09:46:30;;;;;;;9.88;3.92;;;;;;;16.73;44.18;102473.28;5065567;28;20024;-79
2022/05/09 09:49:07;;;;;;;8.38;4.50;;;;;;;16.75;45.77;102467.97;5068884;28;20081;-78
2022/05/09 09:51:45;;;;;;;8.27;3.97;;;;;;;16.81;46.52;102465.19;5071281;28;20056;-78
2022/05/09 09:54:11;;;;;;;8.35;3.90;;;;;;;16.88;44.77;102466.75;5067735;28;20467;-79
2022/05/09 09:56:38;;;;;;;7.68;3.40;;;;;;;16.93;45.18;102466.63;5070973;28;20032;-78
2022/05/09 09:59:09;;;;;;;8.57;3.55;;;;;;;16.99;46.15;102455.97;5074513;28;20025;-77
2022/05/09 10:01:35;;;;;;;;;;;;;;;17.08;46.56;102458.34;5074705;28;20759;-78
2022/05/09 10:04:24;;;;;;;9.73;3.45;;;;;;;17.11;45.49;102453.00;5074564;28;19916;-81
2022/05/09 10:07:06;;;;;;;6.55;3.20;;;;;;;17.14;45.28;102450.31;5060609;28;20032;-79
2022/05/09 10:09:44;;;;;;;6.43;3.05;;;;;;;17.18;45.78;102450.22;5069075;28;20723;-77
2022/05/09 10:12:25;;;;;;;9.90;3.15;;;;;;;17.19;44.83;102442.28;5064455;28;20055;-77
2022/05/09 10:14:52;;;;;;;7.25;3.05;;;;;;;17.22;45.07;102441.34;5073394;28;20063;-77
2022/05/09 10:17:31;;;;;;;8.98;3.58;;;;;;;17.22;44.25;102433.47;5073449;28;20063;-77
2022/05/09 10:19:58;;;;;;;6.35;3.33;;;;;;;17.24;45.53;102436.91;5072085;28;20089;-77
2022/05/09 10:25:28;;;;;;;9.90;3.73;;;;;;;17.31;45.84;102429.72;5070022;28;20051;-76
2022/05/09 10:28:06;;;;;;;6.80;3.83;;;;;;;17.38;45.86;102428.59;5068783;28;20020;-77
2022/05/09 10:30:38;;;;;;;6.40;3.60;;;;;;;17.40;45.17;102427.66;5076456;28;20032;-77
2022/05/09 10:33:13;;;;;;;10.00;3.90;;;;;;;17.43;44.67;102422.28;5070491;28;20021;-77
2022/05/09 10:35:49;;;;;;;7.75;3.72;;;;;;;17.47;46.22;102411.69;5070140;28;20537;-79
2022/05/09 10:38:17;;;;;;;8.73;3.78;;;;;;;17.56;45.18;102412.28;5082019;28;20047;-77
2022/05/09 10:40:50;;;;;;;8.65;3.13;;;;;;;17.65;44.60;102405.88;5085124;28;20486;-77
2022/05/09 10:43:33;;;;;;;10.02;3.38;;;;;;;17.72;44.75;102407.41;5071076;28;20125;-77
2022/05/09 10:46:07;;;;;;;6.22;3.10;;;;;;;17.79;44.43;102407.22;5070914;28;20030;-77
2022/05/09 10:48:57;;;;;;;9.10;3.60;;;;;;;17.84;44.39;102403.53;5069061;28;20107;-77
2022/05/09 10:51:39;;;;;;;8.25;3.80;;;;;;;17.88;44.87;102394.63;5071930;28;20034;-77
2022/05/09 10:54:18;;;;;;;8.35;3.30;;;;;;;17.96;44.69;102394.38;5073401;28;20427;-77
2022/05/09 10:56:59;;;;;;;7.60;3.53;;;;;;;17.98;43.91;102397.00;5072527;28;20139;-77
2022/05/09 10:59:26;;;;;;;;;;;;;;;18.00;44.81;102400.47;5073131;28;20024;-77
2022/05/09 11:02:01;;;;;;;7.05;2.90;;;;;;;18.03;45.61;102388.03;5071515;28;19912;-75
2022/05/09 11:04:30;;;;;;;10.02;3.40;;;;;;;18.12;43.78;102388.63;5067910;28;20032;-77
2022/05/09 11:07:43;;;;;;;7.60;3.40;;;;;;;18.18;44.55;102383.19;5065330;28;20020;-78
2022/05/09 11:10:33;;;;;;;8.57;4.22;;;;;;;18.20;43.68;102386.63;5062081;28;20040;-77
2022/05/09 11:13:11;;;;;;;7.90;3.38;;;;;;;18.23;43.92;102388.28;5069782;28;20025;-78
2022/05/09 11:15:42;;;;;;;6.47;3.42;;;;;;;18.25;42.27;102389.09;5065117;28;20025;-77
2022/05/09 11:18:26;;;;;;;8.10;4.03;;;;;;;18.28;43.59;102383.72;5066896;28;20036;-77
2022/05/09 11:21:05;;;;;;;7.80;3.67;;;;;;;18.28;42.59;102379.31;5069712;28;20078;-78
2022/05/09 11:23:51;;;;;;;7.55;3.80;;;;;;;18.29;42.19;102378.41;5066897;28;20048;-78
2022/05/09 11:26:24;;;;;;;11.23;4.43;;;;;;;18.31;42.57;102379.22;5072322;28;20040;-81
2022/05/09 11:29:11;;;;;;;7.10;3.58;;;;;;;18.38;43.48;102371.09;5074876;28;20052;-77
2022/05/09 11:31:58;;;;;;;8.10;3.72;;;;;;;18.44;42.88;102363.84;5076643;28;20025;-77
2022/05/09 11:34:32;;;;;;;8.43;4.13;;;;;;;18.55;43.35;102365.25;5064626;28;20051;-77
2022/05/09 11:37:09;;;;;;;8.75;4.05;;;;;;;18.60;41.42;102368.59;5070791;28;20032;-77
2022/05/09 11:39:45;;;;;;;8.18;3.83;;;;;;;18.61;41.65;102357.13;5082385;28;20104;-77
2022/05/09 11:45:37;;;;;;;8.05;4.10;;;;;;;18.65;41.94;102349.06;5066133;28;20047;-77
2022/05/09 11:48:30;;;;;;;9.40;3.88;;;;;;;18.72;42.29;102354.13;5070530;28;20418;-77